createdAt,value
2022-09-30T00:00:21.690Z,60.00
2022-09-30T00:02:48.446Z,61.00
2022-09-30T00:05:15.296Z,59.80
2022-09-30T00:07:41.968Z,60.00
2022-09-30T00:10:08.854Z,59.90
2022-09-30T00:12:35.555Z,59.70
2022-09-30T00:15:02.203Z,59.80
2022-09-30T00:17:29.016Z,59.70
2022-09-30T00:19:55.632Z,59.70
2022-09-30T00:22:22.413Z,59.70
2022-09-30T00:24:49.127Z,59.60
2022-09-30T00:27:18.233Z,59.60
2022-09-30T00:29:45.451Z,59.70
2022-09-30T00:32:12.411Z,59.60
2022-09-30T00:34:39.571Z,59.60
2022-09-30T00:37:06.651Z,59.60
2022-09-30T00:39:33.281Z,59.70
2022-09-30T00:42:01.108Z,59.60
2022-09-30T00:44:46.777Z,59.50
2022-09-30T00:47:28.814Z,59.60
2022-09-30T00:49:57.842Z,59.50
2022-09-30T00:52:24.551Z,59.50
2022-09-30T00:54:51.707Z,59.50
2022-09-30T00:57:18.356Z,59.50
2022-09-30T00:59:47.175Z,59.60
2022-09-30T01:02:14.566Z,59.80
2022-09-30T01:04:41.835Z,59.40
2022-09-30T01:07:09.533Z,60.00
2022-09-30T01:09:37.324Z,59.40
2022-09-30T01:12:14.329Z,59.30
2022-09-30T01:14:41.752Z,59.50
2022-09-30T01:17:14.189Z,59.40
2022-09-30T01:19:59.814Z,59.40
2022-09-30T01:22:26.439Z,59.40
2022-09-30T01:25:12.016Z,59.50
2022-09-30T01:27:52.335Z,59.60
2022-09-30T01:30:20.577Z,59.50
2022-09-30T01:32:50.258Z,59.50
2022-09-30T01:35:35.977Z,59.40
2022-09-30T01:38:21.879Z,59.50
2022-09-30T01:41:00.751Z,59.50
2022-09-30T01:43:32.150Z,59.40
2022-09-30T01:46:08.240Z,59.30
2022-09-30T01:48:46.748Z,59.20
2022-09-30T01:51:13.420Z,59.20
2022-09-30T01:53:49.654Z,59.10
2022-09-30T01:56:18.948Z,59.10
2022-09-30T01:58:51.200Z,59.20
2022-09-30T02:01:28.953Z,59.30
2022-09-30T02:03:57.330Z,59.10
2022-09-30T02:06:26.631Z,59.00
2022-09-30T02:09:06.149Z,59.00
2022-09-30T02:11:36.084Z,59.00
2022-09-30T02:14:13.884Z,59.70
2022-09-30T02:16:43.597Z,59.10
2022-09-30T02:19:23.277Z,58.90
2022-09-30T02:21:56.242Z,59.00
2022-09-30T02:24:25.402Z,59.00
2022-09-30T02:26:54.130Z,59.90
2022-09-30T02:29:28.411Z,59.00
2022-09-30T02:31:58.137Z,59.00
2022-09-30T02:34:27.332Z,59.00
2022-09-30T02:37:05.870Z,59.50
2022-09-30T02:39:50.951Z,59.10
2022-09-30T02:42:20.495Z,59.10
2022-09-30T02:44:51.367Z,60.40
2022-09-30T02:47:38.248Z,60.60
2022-09-30T02:50:09.090Z,61.10
2022-09-30T02:52:38.726Z,61.10
2022-09-30T02:55:14.771Z,61.00
2022-09-30T02:57:41.374Z,60.90
2022-09-30T03:00:12.773Z,60.70
2022-09-30T03:02:40.570Z,60.70
2022-09-30T03:05:10.616Z,60.70
2022-09-30T03:07:37.752Z,60.40
2022-09-30T03:10:14.513Z,60.20
2022-09-30T03:12:41.149Z,60.20
2022-09-30T03:15:28.135Z,60.20
2022-09-30T03:17:59.131Z,59.90
2022-09-30T03:20:33.954Z,60.50
2022-09-30T03:23:13.188Z,59.60
2022-09-30T03:25:59.504Z,59.40
2022-09-30T03:28:32.985Z,59.40
2022-09-30T03:31:07.897Z,59.40
2022-09-30T03:33:49.196Z,59.30
2022-09-30T03:36:25.126Z,59.10
2022-09-30T03:38:51.791Z,59.00
2022-09-30T03:41:31.288Z,58.90
2022-09-30T03:44:02.855Z,59.00
2022-09-30T03:46:37.981Z,58.90
2022-09-30T03:49:07.786Z,58.70
2022-09-30T03:51:38.301Z,58.70
2022-09-30T03:54:10.166Z,59.40
2022-09-30T03:56:37.786Z,59.70
2022-09-30T03:59:04.502Z,59.70
2022-09-30T04:01:31.197Z,59.80
2022-09-30T04:03:57.791Z,59.90
2022-09-30T04:06:25.190Z,59.90
2022-09-30T04:08:53.958Z,59.90
2022-09-30T04:11:20.807Z,59.80
2022-09-30T04:13:47.484Z,59.70
2022-09-30T04:16:14.179Z,59.60
2022-09-30T04:18:40.938Z,59.60
2022-09-30T04:21:12.978Z,59.60
2022-09-30T04:23:40.915Z,59.70
2022-09-30T04:26:08.654Z,59.60
2022-09-30T04:28:35.352Z,59.70
2022-09-30T04:31:02.745Z,59.70
2022-09-30T04:33:29.639Z,58.60
2022-09-30T04:35:57.017Z,59.90
2022-09-30T04:38:24.671Z,59.30
2022-09-30T04:40:51.956Z,59.50
2022-09-30T04:43:19.315Z,60.00
2022-09-30T04:45:46.646Z,60.00
2022-09-30T04:48:13.443Z,60.60
2022-09-30T04:50:40.586Z,60.10
2022-09-30T04:53:12.471Z,59.20
2022-09-30T04:55:39.079Z,59.30
2022-09-30T04:58:05.792Z,59.60
2022-09-30T05:00:32.500Z,59.60
2022-09-30T05:02:59.152Z,59.60
2022-09-30T05:05:25.952Z,59.50
2022-09-30T05:07:52.609Z,59.60
2022-09-30T05:10:19.299Z,59.60
2022-09-30T05:12:46.100Z,59.70
2022-09-30T05:15:12.717Z,59.60
2022-09-30T05:17:39.424Z,59.80
2022-09-30T05:20:10.753Z,59.60
2022-09-30T05:22:38.355Z,59.60
2022-09-30T05:25:05.626Z,59.30
2022-09-30T05:27:32.395Z,59.30
2022-09-30T05:29:59.245Z,59.80
2022-09-30T05:32:25.976Z,60.40
2022-09-30T05:34:52.603Z,59.30
2022-09-30T05:37:19.241Z,59.10
2022-09-30T05:39:46.046Z,59.40
2022-09-30T05:42:14.157Z,59.30
2022-09-30T05:44:41.407Z,59.40
2022-09-30T05:47:11.620Z,59.50
2022-09-30T05:49:40.128Z,59.20
2022-09-30T05:52:07.858Z,59.30
2022-09-30T05:54:34.532Z,59.30
2022-09-30T05:57:01.153Z,59.30
2022-09-30T05:59:27.779Z,59.00
2022-09-30T06:01:54.546Z,59.00
2022-09-30T06:04:22.701Z,59.30
2022-09-30T06:06:49.356Z,59.50
2022-09-30T06:09:16.587Z,59.50
2022-09-30T06:11:43.223Z,58.90
2022-09-30T06:14:09.867Z,59.80
2022-09-30T06:16:36.557Z,59.90
2022-09-30T06:19:03.258Z,59.90
2022-09-30T06:21:29.866Z,59.80
2022-09-30T06:23:56.515Z,59.50
2022-09-30T06:26:23.150Z,59.60
2022-09-30T06:28:50.300Z,59.60
2022-09-30T06:31:17.277Z,59.90
2022-09-30T06:33:44.127Z,60.00
2022-09-30T06:36:10.964Z,60.00
2022-09-30T06:38:38.250Z,60.00
2022-09-30T06:41:05.438Z,60.00
2022-09-30T06:43:35.512Z,59.90
2022-09-30T06:46:18.874Z,59.70
2022-09-30T06:48:47.186Z,59.80
2022-09-30T06:51:13.776Z,60.20
2022-09-30T06:53:40.489Z,60.20
2022-09-30T06:56:07.134Z,59.90
2022-09-30T06:58:33.844Z,60.10
2022-09-30T07:01:02.320Z,60.10
2022-09-30T07:03:30.910Z,60.30
2022-09-30T07:06:01.668Z,60.30
2022-09-30T07:08:31.484Z,60.40
2022-09-30T07:10:58.772Z,60.30
2022-09-30T07:13:25.757Z,60.10
2022-09-30T07:15:54.155Z,59.90
2022-09-30T07:18:21.486Z,59.80
2022-09-30T07:20:49.080Z,59.80
2022-09-30T07:23:15.665Z,60.00
2022-09-30T07:25:49.372Z,59.80
2022-09-30T07:28:16.132Z,59.80
2022-09-30T07:30:43.568Z,59.90
2022-09-30T07:33:16.452Z,59.90
2022-09-30T07:35:50.994Z,59.90
2022-09-30T07:38:18.741Z,59.90
2022-09-30T07:40:52.218Z,59.90
2022-09-30T07:43:19.122Z,60.00
2022-09-30T07:45:46.185Z,60.00
2022-09-30T07:48:32.781Z,60.10
2022-09-30T07:50:59.422Z,60.10
2022-09-30T07:53:32.514Z,60.20
2022-09-30T07:56:02.636Z,60.30
2022-09-30T07:58:29.266Z,60.10
2022-09-30T08:00:55.968Z,60.10
2022-09-30T08:03:22.692Z,60.20
2022-09-30T08:05:49.420Z,60.30
2022-09-30T08:08:17.261Z,60.30
2022-09-30T08:10:43.950Z,60.40
2022-09-30T08:13:13.782Z,60.40
2022-09-30T08:15:40.664Z,60.40
2022-09-30T08:18:07.332Z,60.40
2022-09-30T08:20:34.006Z,60.40
2022-09-30T08:23:00.666Z,60.50
2022-09-30T08:25:27.718Z,61.30
2022-09-30T08:27:54.579Z,61.10
2022-09-30T08:30:21.381Z,61.10
2022-09-30T08:32:48.090Z,61.10
2022-09-30T08:35:14.684Z,61.50
2022-09-30T08:37:41.398Z,61.10
2022-09-30T08:40:15.811Z,61.00
2022-09-30T08:42:58.775Z,61.00
2022-09-30T08:45:37.390Z,61.10
2022-09-30T08:48:07.290Z,61.10
2022-09-30T08:50:34.011Z,61.10
2022-09-30T08:53:08.314Z,61.10
2022-09-30T08:55:42.089Z,61.10
2022-09-30T08:58:25.743Z,61.30
2022-09-30T09:00:54.962Z,61.20
2022-09-30T09:03:22.822Z,61.40
2022-09-30T09:06:00.236Z,61.40
2022-09-30T09:08:39.584Z,61.60
2022-09-30T09:11:30.395Z,61.50
2022-09-30T09:14:04.223Z,61.50
2022-09-30T09:16:42.286Z,61.60
2022-09-30T09:19:15.414Z,61.60
2022-09-30T09:21:53.737Z,61.60
2022-09-30T09:24:40.223Z,61.70
2022-09-30T09:27:19.160Z,61.70
2022-09-30T09:29:48.649Z,61.80
2022-09-30T09:32:17.822Z,61.90
2022-09-30T09:34:45.035Z,63.00
2022-09-30T09:37:14.798Z,61.90
2022-09-30T09:39:44.410Z,62.00
2022-09-30T09:42:25.023Z,62.10
2022-09-30T09:45:00.327Z,62.10
2022-09-30T09:47:26.955Z,62.10
2022-09-30T09:49:57.477Z,62.10
2022-09-30T09:52:30.528Z,62.00
2022-09-30T09:54:57.275Z,62.10
2022-09-30T09:57:27.720Z,62.00
2022-09-30T09:59:55.116Z,62.50
2022-09-30T10:02:24.091Z,62.20
2022-09-30T10:04:59.869Z,62.10
2022-09-30T10:07:30.449Z,62.10
2022-09-30T10:10:18.479Z,62.10
2022-09-30T10:12:47.994Z,62.30
2022-09-30T10:15:18.780Z,62.50
2022-09-30T10:17:50.154Z,62.80
2022-09-30T10:20:16.766Z,62.90
2022-09-30T10:22:43.384Z,62.30
2022-09-30T10:25:15.960Z,62.80
2022-09-30T10:27:50.597Z,62.70
2022-09-30T10:30:36.223Z,63.20
2022-09-30T10:33:06.646Z,62.90
2022-09-30T10:35:33.366Z,62.40
2022-09-30T10:38:00.540Z,62.20
2022-09-30T10:40:28.953Z,62.10
2022-09-30T10:42:56.099Z,61.90
2022-09-30T10:45:24.682Z,62.00
2022-09-30T10:47:53.310Z,61.60
2022-09-30T10:50:21.634Z,62.70
2022-09-30T10:53:11.170Z,62.60
2022-09-30T10:55:44.470Z,62.50
2022-09-30T10:58:26.034Z,62.50
2022-09-30T11:01:00.180Z,62.30
2022-09-30T11:03:56.423Z,62.40
2022-09-30T11:06:24.996Z,62.50
2022-09-30T11:09:12.251Z,62.50
2022-09-30T11:11:42.369Z,62.20
2022-09-30T11:14:17.230Z,62.40
2022-09-30T11:16:56.057Z,61.90
2022-09-30T11:19:32.852Z,62.10
2022-09-30T11:22:04.557Z,62.00
2022-09-30T11:24:40.776Z,62.00
2022-09-30T11:27:25.821Z,62.30
2022-09-30T11:30:07.898Z,62.40
2022-09-30T11:32:40.586Z,62.30
2022-09-30T11:35:13.356Z,62.00
2022-09-30T11:37:51.647Z,62.00
2022-09-30T11:40:35.067Z,61.90
2022-09-30T11:43:25.012Z,62.00
2022-09-30T11:45:54.121Z,62.00
2022-09-30T11:48:47.161Z,61.80
2022-09-30T11:51:32.703Z,61.80
2022-09-30T11:54:16.449Z,61.80
2022-09-30T11:56:43.018Z,62.00
2022-09-30T11:59:17.292Z,62.60
2022-09-30T12:01:49.955Z,62.00
2022-09-30T12:04:26.199Z,62.00
2022-09-30T12:06:52.807Z,61.90
2022-09-30T12:09:41.483Z,61.90
2022-09-30T12:12:16.076Z,61.70
2022-09-30T12:14:48.992Z,61.70
2022-09-30T12:17:34.097Z,61.70
2022-09-30T12:20:25.577Z,61.90
2022-09-30T12:23:01.177Z,61.80
2022-09-30T12:25:39.364Z,61.70
2022-09-30T12:28:34.775Z,61.80
2022-09-30T12:31:24.579Z,61.80
2022-09-30T12:34:06.149Z,61.80
2022-09-30T12:36:43.390Z,61.80
2022-09-30T12:39:09.979Z,62.00
2022-09-30T12:41:42.813Z,61.80
2022-09-30T12:44:09.426Z,61.80
2022-09-30T12:46:42.130Z,61.90
2022-09-30T12:49:15.719Z,62.10
2022-09-30T12:51:43.243Z,62.10
2022-09-30T12:54:16.179Z,62.10
2022-09-30T12:56:47.271Z,62.10
2022-09-30T12:59:14.859Z,62.10
2022-09-30T13:01:42.314Z,62.10
2022-09-30T13:04:08.894Z,62.10
2022-09-30T13:06:47.664Z,61.60
2022-09-30T13:09:17.418Z,61.70
2022-09-30T13:11:44.305Z,61.70
2022-09-30T13:14:12.034Z,61.60
2022-09-30T13:16:57.420Z,61.70
2022-09-30T13:19:31.286Z,61.80
2022-09-30T13:22:16.678Z,61.90
2022-09-30T13:25:00.348Z,62.00
2022-09-30T13:27:38.545Z,62.00
2022-09-30T13:30:17.340Z,62.00
2022-09-30T13:32:47.895Z,62.10
2022-09-30T13:35:33.178Z,62.10
2022-09-30T13:38:28.986Z,62.20
2022-09-30T13:41:03.948Z,62.20
2022-09-30T13:43:38.155Z,62.30
2022-09-30T13:46:07.825Z,62.30
2022-09-30T13:48:36.219Z,62.10
2022-09-30T13:51:08.502Z,62.10
2022-09-30T13:53:37.865Z,62.10
2022-09-30T13:56:09.369Z,62.10
2022-09-30T13:58:39.215Z,62.10
2022-09-30T14:01:05.874Z,62.20
2022-09-30T14:03:51.465Z,62.20
2022-09-30T14:06:43.259Z,62.30
2022-09-30T14:09:19.037Z,62.30
2022-09-30T14:11:52.470Z,62.30
2022-09-30T14:14:25.005Z,62.40
2022-09-30T14:16:51.590Z,62.30
2022-09-30T14:19:34.719Z,62.30
2022-09-30T14:22:08.800Z,62.50
2022-09-30T14:24:38.056Z,62.50
2022-09-30T14:27:04.832Z,62.40
2022-09-30T14:29:50.019Z,62.40
2022-09-30T14:32:21.569Z,62.40
2022-09-30T14:34:48.553Z,62.40
2022-09-30T14:37:18.854Z,62.50
2022-09-30T14:39:46.746Z,62.50
2022-09-30T14:42:19.403Z,62.40
2022-09-30T14:44:47.283Z,62.40
2022-09-30T14:47:15.408Z,62.50
2022-09-30T14:49:42.232Z,62.50
2022-09-30T14:52:28.840Z,62.30
2022-09-30T14:54:57.368Z,62.20
2022-09-30T14:57:24.046Z,62.00
2022-09-30T14:59:50.676Z,61.90
2022-09-30T15:02:20.382Z,61.90
2022-09-30T15:04:50.538Z,61.90
2022-09-30T15:07:17.479Z,62.00
2022-09-30T15:09:46.199Z,62.30
2022-09-30T15:12:17.056Z,62.20
2022-09-30T15:14:47.116Z,62.20
2022-09-30T15:17:19.919Z,62.20
2022-09-30T15:19:46.595Z,62.30
2022-09-30T15:22:14.015Z,62.30
2022-09-30T15:24:43.047Z,62.30
2022-09-30T15:27:30.101Z,62.50
2022-09-30T15:29:58.022Z,62.40
2022-09-30T15:32:26.469Z,62.50
2022-09-30T15:34:54.347Z,62.50
2022-09-30T15:37:24.798Z,62.60
2022-09-30T15:40:10.749Z,62.60
2022-09-30T15:42:53.109Z,62.60
2022-09-30T15:45:34.576Z,62.60
2022-09-30T15:48:20.773Z,62.50
2022-09-30T15:50:49.038Z,62.60
2022-09-30T15:53:24.262Z,62.60
2022-09-30T15:55:53.113Z,62.70
2022-09-30T15:58:34.314Z,62.70
2022-09-30T16:01:10.331Z,62.70
2022-09-30T16:03:37.801Z,62.70
2022-09-30T16:06:08.989Z,62.70
2022-09-30T16:08:43.763Z,62.90
2022-09-30T16:11:17.814Z,62.80
2022-09-30T16:13:45.862Z,62.80
2022-09-30T16:16:17.791Z,62.90
2022-09-30T16:18:44.986Z,62.90
2022-09-30T16:21:26.999Z,63.00
2022-09-30T16:23:54.729Z,63.70
2022-09-30T16:26:28.517Z,63.00
2022-09-30T16:29:05.843Z,63.00
2022-09-30T16:31:34.939Z,62.90
2022-09-30T16:34:01.605Z,63.10
2022-09-30T16:36:28.209Z,63.10
2022-09-30T16:38:54.831Z,63.10
2022-09-30T16:41:21.454Z,63.10
2022-09-30T16:43:48.048Z,63.10
2022-09-30T16:46:14.743Z,63.20
2022-09-30T16:48:41.395Z,63.20
2022-09-30T16:51:13.909Z,63.20
2022-09-30T16:53:41.507Z,63.30
2022-09-30T16:56:19.287Z,63.30
2022-09-30T16:58:46.450Z,63.30
2022-09-30T17:01:20.914Z,63.30
2022-09-30T17:03:48.188Z,63.40
2022-09-30T17:06:15.807Z,63.40
2022-09-30T17:08:42.814Z,63.50
2022-09-30T17:11:11.015Z,63.50
2022-09-30T17:13:37.895Z,63.50
2022-09-30T17:16:04.641Z,63.50
2022-09-30T17:18:31.374Z,63.50
2022-09-30T17:20:57.987Z,63.60
2022-09-30T17:23:25.470Z,63.50
2022-09-30T17:25:52.544Z,63.50
2022-09-30T17:28:19.235Z,63.40
2022-09-30T17:30:47.903Z,63.40
2022-09-30T17:33:14.950Z,63.40
2022-09-30T17:35:41.563Z,63.30
2022-09-30T17:38:09.139Z,63.50
2022-09-30T17:40:54.587Z,63.50
2022-09-30T17:43:21.209Z,63.50
2022-09-30T17:45:48.544Z,63.60
2022-09-30T17:48:16.283Z,63.50
2022-09-30T17:50:47.811Z,63.50
2022-09-30T17:53:16.911Z,63.30
2022-09-30T17:55:44.030Z,63.30
2022-09-30T17:58:12.446Z,63.40
2022-09-30T18:00:39.187Z,63.50
2022-09-30T18:03:06.275Z,63.50
2022-09-30T18:05:35.962Z,63.50
2022-09-30T18:08:03.246Z,63.30
2022-09-30T18:10:30.417Z,63.50
2022-09-30T18:12:57.162Z,63.30
2022-09-30T18:15:24.042Z,64.10
2022-09-30T18:17:50.747Z,63.50
2022-09-30T18:20:20.670Z,63.50
2022-09-30T18:22:50.031Z,63.60
2022-09-30T18:25:19.965Z,63.60
2022-09-30T18:27:51.301Z,63.60
2022-09-30T18:30:20.103Z,63.60
2022-09-30T18:32:48.253Z,63.90
2022-09-30T18:35:17.114Z,64.00
2022-09-30T18:37:47.366Z,63.80
2022-09-30T18:40:17.530Z,63.60
2022-09-30T18:42:44.270Z,63.50
2022-09-30T18:45:12.603Z,63.40
2022-09-30T18:47:41.125Z,63.20
2022-09-30T18:50:09.095Z,63.20
2022-09-30T18:52:35.975Z,63.20
2022-09-30T18:55:02.789Z,63.20
2022-09-30T18:57:31.333Z,63.10
2022-09-30T18:59:58.520Z,63.20
2022-09-30T19:02:25.289Z,63.30
2022-09-30T19:04:51.977Z,63.20
2022-09-30T19:07:25.528Z,63.30
2022-09-30T19:09:52.192Z,63.30
2022-09-30T19:12:18.928Z,63.30
2022-09-30T19:14:45.541Z,63.30
2022-09-30T19:17:12.357Z,63.20
2022-09-30T19:19:41.236Z,63.30
2022-09-30T19:22:08.124Z,63.40
2022-09-30T19:24:35.955Z,63.30
2022-09-30T19:27:02.851Z,63.20
2022-09-30T19:29:29.512Z,63.40
2022-09-30T19:31:57.416Z,63.40
2022-09-30T19:34:31.894Z,63.30
2022-09-30T19:36:59.853Z,63.30
2022-09-30T19:39:38.665Z,63.40
2022-09-30T19:42:11.731Z,63.50
2022-09-30T19:44:38.366Z,63.50
2022-09-30T19:47:05.075Z,63.40
2022-09-30T19:49:31.734Z,63.40
2022-09-30T19:51:58.387Z,63.50
2022-09-30T19:54:37.123Z,63.50
2022-09-30T19:57:06.772Z,63.40
2022-09-30T19:59:34.041Z,63.40
2022-09-30T20:02:01.025Z,63.40
2022-09-30T20:04:29.217Z,63.40
2022-09-30T20:06:55.964Z,63.40
2022-09-30T20:09:22.630Z,63.30
2022-09-30T20:11:49.243Z,63.30
2022-09-30T20:14:34.330Z,63.30
2022-09-30T20:17:00.970Z,63.30
2022-09-30T20:19:27.650Z,63.40
2022-09-30T20:21:54.553Z,63.20
2022-09-30T20:24:21.241Z,63.30
2022-09-30T20:26:48.080Z,63.20
2022-09-30T20:29:14.852Z,63.20
2022-09-30T20:31:42.409Z,63.20
2022-09-30T20:34:13.223Z,63.20
2022-09-30T20:36:40.565Z,63.20
2022-09-30T20:39:07.898Z,63.20
2022-09-30T20:41:35.837Z,63.20
2022-09-30T20:44:06.643Z,63.30
2022-09-30T20:46:33.336Z,63.20
2022-09-30T20:49:00.642Z,63.00
2022-09-30T20:51:28.046Z,62.90
2022-09-30T20:53:55.712Z,63.00
2022-09-30T20:56:23.171Z,63.10
2022-09-30T20:58:50.319Z,63.10
2022-09-30T21:01:19.308Z,63.10
2022-09-30T21:03:50.408Z,63.00
2022-09-30T21:06:18.210Z,63.20
2022-09-30T21:08:44.935Z,63.10
2022-09-30T21:11:11.898Z,63.20
2022-09-30T21:13:45.279Z,63.10
2022-09-30T21:16:14.944Z,63.10
2022-09-30T21:18:45.158Z,62.60
2022-09-30T21:21:13.411Z,63.20
2022-09-30T21:23:40.546Z,62.90
2022-09-30T21:26:12.007Z,63.10
2022-09-30T21:28:38.809Z,63.00
2022-09-30T21:31:14.209Z,63.20
2022-09-30T21:33:40.858Z,63.10
2022-09-30T21:36:07.544Z,63.00
2022-09-30T21:38:34.276Z,63.00
2022-09-30T21:41:02.469Z,62.70
2022-09-30T21:43:33.016Z,62.80
2022-09-30T21:46:00.477Z,62.80
2022-09-30T21:48:27.814Z,62.80
2022-09-30T21:50:56.306Z,62.50
2022-09-30T21:53:27.222Z,62.80
2022-09-30T21:55:54.584Z,62.90
2022-09-30T21:58:23.118Z,62.50
2022-09-30T22:00:50.346Z,62.40
2022-09-30T22:03:17.314Z,62.30
2022-09-30T22:05:50.109Z,62.10
2022-09-30T22:08:16.780Z,62.10
2022-09-30T22:10:43.530Z,62.00
2022-09-30T22:13:11.792Z,62.30
2022-09-30T22:15:38.850Z,61.90
2022-09-30T22:18:08.241Z,61.90
2022-09-30T22:20:38.278Z,61.80
2022-09-30T22:23:05.067Z,62.00
2022-09-30T22:25:32.740Z,61.60
2022-09-30T22:27:59.607Z,62.10
2022-09-30T22:30:27.764Z,61.70
2022-09-30T22:33:14.370Z,61.90
2022-09-30T22:35:59.433Z,61.50
2022-09-30T22:38:26.062Z,62.30
2022-09-30T22:40:55.972Z,61.90
2022-09-30T22:43:24.464Z,61.60
2022-09-30T22:46:08.154Z,61.70
2022-09-30T22:48:35.376Z,61.50
2022-09-30T22:51:02.105Z,61.60
2022-09-30T22:53:29.101Z,61.80
2022-09-30T22:55:55.850Z,61.40
2022-09-30T22:58:25.968Z,61.40
2022-09-30T23:00:56.686Z,61.10
2022-09-30T23:03:25.397Z,61.10
2022-09-30T23:05:52.803Z,61.20
2022-09-30T23:08:19.653Z,61.10
2022-09-30T23:10:52.023Z,61.30
2022-09-30T23:13:21.872Z,62.50
2022-09-30T23:15:48.523Z,61.20
2022-09-30T23:18:17.241Z,61.10
2022-09-30T23:20:53.046Z,61.10
2022-09-30T23:23:20.087Z,61.20
2022-09-30T23:25:46.745Z,61.40
2022-09-30T23:28:13.893Z,61.10
2022-09-30T23:30:40.658Z,61.70
2022-09-30T23:33:09.227Z,61.20
2022-09-30T23:35:35.838Z,61.10
2022-09-30T23:38:02.474Z,61.30
2022-09-30T23:40:29.103Z,61.20
2022-09-30T23:42:56.535Z,61.20
2022-09-30T23:45:23.216Z,61.40
2022-09-30T23:47:49.869Z,61.30
2022-09-30T23:50:16.535Z,62.80
2022-09-30T23:52:44.273Z,62.50
2022-09-30T23:55:11.657Z,61.30
2022-09-30T23:57:38.352Z,61.20
